Pittsville, Virginia
Current Conditions -  °F | °C
As of 8:55 PM on Saturday 22 Nov 2014 (Local Time) from K0V4 Reporting Station
Clear Clear  
Wind Chill: 30°   Ceiling: Unl
Heat Index: 30°   Visibility: 10mi
Dew Point: 23°   Wind: 0mph
Humidity: 75%   Direction: NA
Pressure: 30.34"   Gusts: NA
Location:  36.98°N, 79.46°W
Report Text: K0V4 230155Z AUTO 00000KT 10SM CLR M01/M05 A3034 RMK AO1 T10111051
Loading
Personal Weather Stations






























Interactive Weather Map New forecast layout! Learn more

10-Day Weather Forecast

Advertisements
Track Severe Weather on mobile